sensor_id;sensor_type;location;lat;lon;timestamp;temperature;humidity
15578;DHT22;17667;45.598;5.214;2023-06-26T00:01:00;21.90;69.80
15578;DHT22;17667;45.598;5.214;2023-06-26T00:03:51;21.90;69.60
15578;DHT22;17667;45.598;5.214;2023-06-26T00:06:41;21.80;69.60
15578;DHT22;17667;45.598;5.214;2023-06-26T00:09:34;21.80;70.00
15578;DHT22;17667;45.598;5.214;2023-06-26T00:12:24;21.80;70.20
15578;DHT22;17667;45.598;5.214;2023-06-26T00:15:14;21.80;71.40
15578;DHT22;17667;45.598;5.214;2023-06-26T00:18:03;21.70;70.90
15578;DHT22;17667;45.598;5.214;2023-06-26T00:20:53;21.60;71.40
15578;DHT22;17667;45.598;5.214;2023-06-26T00:23:43;21.60;71.70
15578;DHT22;17667;45.598;5.214;2023-06-26T00:26:36;21.50;71.70
15578;DHT22;17667;45.598;5.214;2023-06-26T00:29:25;21.60;71.90
15578;DHT22;17667;45.598;5.214;2023-06-26T00:32:15;21.50;72.70
15578;DHT22;17667;45.598;5.214;2023-06-26T00:35:05;21.50;72.20
15578;DHT22;17667;45.598;5.214;2023-06-26T00:37:55;21.40;72.10
15578;DHT22;17667;45.598;5.214;2023-06-26T00:40:45;21.40;72.30
15578;DHT22;17667;45.598;5.214;2023-06-26T00:43:37;21.40;73.20
15578;DHT22;17667;45.598;5.214;2023-06-26T00:46:27;21.40;73.00
15578;DHT22;17667;45.598;5.214;2023-06-26T00:49:17;21.40;73.60
15578;DHT22;17667;45.598;5.214;2023-06-26T00:52:07;21.40;73.80
15578;DHT22;17667;45.598;5.214;2023-06-26T00:54:58;21.30;73.40
15578;DHT22;17667;45.598;5.214;2023-06-26T00:57:47;21.30;74.50
15578;DHT22;17667;45.598;5.214;2023-06-26T01:00:40;21.30;75.20
15578;DHT22;17667;45.598;5.214;2023-06-26T01:03:32;21.20;75.50
15578;DHT22;17667;45.598;5.214;2023-06-26T01:06:24;21.20;75.50
15578;DHT22;17667;45.598;5.214;2023-06-26T01:09:17;21.20;75.80
15578;DHT22;17667;45.598;5.214;2023-06-26T01:12:08;21.10;75.80
15578;DHT22;17667;45.598;5.214;2023-06-26T01:14:58;21.10;76.10
15578;DHT22;17667;45.598;5.214;2023-06-26T01:17:51;21.10;76.30
15578;DHT22;17667;45.598;5.214;2023-06-26T01:20:42;21.00;76.50
15578;DHT22;17667;45.598;5.214;2023-06-26T01:23:38;21.00;76.70
15578;DHT22;17667;45.598;5.214;2023-06-26T01:26:34;21.00;76.90
15578;DHT22;17667;45.598;5.214;2023-06-26T01:29:25;21.00;77.80
15578;DHT22;17667;45.598;5.214;2023-06-26T01:32:16;20.90;77.20
15578;DHT22;17667;45.598;5.214;2023-06-26T01:35:07;20.90;77.10
15578;DHT22;17667;45.598;5.214;2023-06-26T01:38:11;20.90;77.30
15578;DHT22;17667;45.598;5.214;2023-06-26T01:41:02;20.90;78.30
15578;DHT22;17667;45.598;5.214;2023-06-26T01:44:03;20.90;77.90
15578;DHT22;17667;45.598;5.214;2023-06-26T01:46:59;20.80;77.50
15578;DHT22;17667;45.598;5.214;2023-06-26T01:49:55;20.70;78.90
15578;DHT22;17667;45.598;5.214;2023-06-26T01:52:52;20.70;78.20
15578;DHT22;17667;45.598;5.214;2023-06-26T01:55:48;20.60;78.50
15578;DHT22;17667;45.598;5.214;2023-06-26T01:58:42;20.60;78.30
15578;DHT22;17667;45.598;5.214;2023-06-26T02:01:35;20.60;79.90
15578;DHT22;17667;45.598;5.214;2023-06-26T02:04:25;20.60;79.80
15578;DHT22;17667;45.598;5.214;2023-06-26T02:07:15;20.50;80.00
15578;DHT22;17667;45.598;5.214;2023-06-26T02:10:06;20.50;79.90
15578;DHT22;17667;45.598;5.214;2023-06-26T02:12:56;20.50;80.90
15578;DHT22;17667;45.598;5.214;2023-06-26T02:15:46;20.50;80.70
15578;DHT22;17667;45.598;5.214;2023-06-26T02:18:38;20.50;81.40
15578;DHT22;17667;45.598;5.214;2023-06-26T02:21:28;20.40;81.70
15578;DHT22;17667;45.598;5.214;2023-06-26T02:24:18;20.40;81.80
15578;DHT22;17667;45.598;5.214;2023-06-26T02:27:08;20.40;82.60
15578;DHT22;17667;45.598;5.214;2023-06-26T02:29:58;20.30;82.90
15578;DHT22;17667;45.598;5.214;2023-06-26T02:32:48;20.30;82.70
15578;DHT22;17667;45.598;5.214;2023-06-26T02:35:40;20.30;83.60
15578;DHT22;17667;45.598;5.214;2023-06-26T02:38:30;20.20;83.50
15578;DHT22;17667;45.598;5.214;2023-06-26T02:41:20;20.20;83.40
15578;DHT22;17667;45.598;5.214;2023-06-26T02:44:09;20.20;82.50
15578;DHT22;17667;45.598;5.214;2023-06-26T02:47:01;20.20;83.30
15578;DHT22;17667;45.598;5.214;2023-06-26T02:49:51;20.10;83.00
15578;DHT22;17667;45.598;5.214;2023-06-26T02:52:43;20.10;83.90
15578;DHT22;17667;45.598;5.214;2023-06-26T02:55:34;20.10;84.20
15578;DHT22;17667;45.598;5.214;2023-06-26T02:58:24;20.00;84.60
15578;DHT22;17667;45.598;5.214;2023-06-26T03:01:14;20.00;85.10
15578;DHT22;17667;45.598;5.214;2023-06-26T03:04:04;20.00;85.20
15578;DHT22;17667;45.598;5.214;2023-06-26T03:06:53;20.00;85.20
15578;DHT22;17667;45.598;5.214;2023-06-26T03:09:46;20.00;85.50
15578;DHT22;17667;45.598;5.214;2023-06-26T03:12:36;19.90;85.30
15578;DHT22;17667;45.598;5.214;2023-06-26T03:15:26;19.90;85.60
15578;DHT22;17667;45.598;5.214;2023-06-26T03:18:16;19.90;85.70
15578;DHT22;17667;45.598;5.214;2023-06-26T03:21:06;19.80;86.20
15578;DHT22;17667;45.598;5.214;2023-06-26T03:23:58;19.80;86.80
15578;DHT22;17667;45.598;5.214;2023-06-26T03:26:50;19.80;87.00
15578;DHT22;17667;45.598;5.214;2023-06-26T03:29:40;19.70;87.10
15578;DHT22;17667;45.598;5.214;2023-06-26T03:32:30;19.70;87.60
15578;DHT22;17667;45.598;5.214;2023-06-26T03:35:20;19.70;88.00
15578;DHT22;17667;45.598;5.214;2023-06-26T03:38:11;19.80;87.60
15578;DHT22;17667;45.598;5.214;2023-06-26T03:41:01;19.80;87.60
15578;DHT22;17667;45.598;5.214;2023-06-26T03:43:53;19.80;87.60
15578;DHT22;17667;45.598;5.214;2023-06-26T03:46:43;19.70;87.70
15578;DHT22;17667;45.598;5.214;2023-06-26T03:49:33;19.70;89.10
15578;DHT22;17667;45.598;5.214;2023-06-26T03:52:23;19.70;88.30
15578;DHT22;17667;45.598;5.214;2023-06-26T03:55:13;19.70;88.00
15578;DHT22;17667;45.598;5.214;2023-06-26T03:58:04;19.60;89.60
15578;DHT22;17667;45.598;5.214;2023-06-26T04:00:56;19.60;89.60
15578;DHT22;17667;45.598;5.214;2023-06-26T04:03:47;19.60;89.90
15578;DHT22;17667;45.598;5.214;2023-06-26T04:06:37;19.70;88.50
15578;DHT22;17667;45.598;5.214;2023-06-26T04:09:27;19.70;88.70
15578;DHT22;17667;45.598;5.214;2023-06-26T04:12:17;19.70;88.70
15578;DHT22;17667;45.598;5.214;2023-06-26T04:15:08;19.70;89.80
15578;DHT22;17667;45.598;5.214;2023-06-26T04:18:01;19.70;88.60
15578;DHT22;17667;45.598;5.214;2023-06-26T04:21:07;19.70;90.00
15578;DHT22;17667;45.598;5.214;2023-06-26T04:23:58;19.70;89.20
15578;DHT22;17667;45.598;5.214;2023-06-26T04:26:48;19.70;90.60
15578;DHT22;17667;45.598;5.214;2023-06-26T04:29:38;19.70;90.00
15578;DHT22;17667;45.598;5.214;2023-06-26T04:32:28;19.70;90.10
15578;DHT22;17667;45.598;5.214;2023-06-26T04:35:20;19.70;90.00
15578;DHT22;17667;45.598;5.214;2023-06-26T04:38:11;19.80;90.10
15578;DHT22;17667;45.598;5.214;2023-06-26T04:41:01;19.80;90.00
15578;DHT22;17667;45.598;5.214;2023-06-26T04:43:51;19.80;89.50
15578;DHT22;17667;45.598;5.214;2023-06-26T04:46:41;19.80;90.10
15578;DHT22;17667;45.598;5.214;2023-06-26T04:49:31;19.80;89.90
15578;DHT22;17667;45.598;5.214;2023-06-26T04:52:24;19.80;90.30
15578;DHT22;17667;45.598;5.214;2023-06-26T04:55:14;19.90;90.20
15578;DHT22;17667;45.598;5.214;2023-06-26T04:58:04;19.90;89.60
15578;DHT22;17667;45.598;5.214;2023-06-26T05:00:54;19.90;89.90
15578;DHT22;17667;45.598;5.214;2023-06-26T05:03:45;20.00;90.10
15578;DHT22;17667;45.598;5.214;2023-06-26T05:06:35;20.00;90.40
15578;DHT22;17667;45.598;5.214;2023-06-26T05:09:28;20.10;90.60
15578;DHT22;17667;45.598;5.214;2023-06-26T05:12:18;20.10;90.50
15578;DHT22;17667;45.598;5.214;2023-06-26T05:15:09;20.20;90.40
15578;DHT22;17667;45.598;5.214;2023-06-26T05:17:58;20.20;90.40
15578;DHT22;17667;45.598;5.214;2023-06-26T05:20:49;20.30;90.20
15578;DHT22;17667;45.598;5.214;2023-06-26T05:23:39;20.30;90.40
15578;DHT22;17667;45.598;5.214;2023-06-26T05:26:34;20.40;90.20
15578;DHT22;17667;45.598;5.214;2023-06-26T05:29:25;20.40;90.50
15578;DHT22;17667;45.598;5.214;2023-06-26T05:32:16;20.50;90.80
15578;DHT22;17667;45.598;5.214;2023-06-26T05:35:07;20.60;90.50
15578;DHT22;17667;45.598;5.214;2023-06-26T05:37:58;20.70;90.50
15578;DHT22;17667;45.598;5.214;2023-06-26T05:40:48;20.80;89.90
15578;DHT22;17667;45.598;5.214;2023-06-26T05:43:41;20.80;90.10
15578;DHT22;17667;45.598;5.214;2023-06-26T05:46:30;20.90;89.90
15578;DHT22;17667;45.598;5.214;2023-06-26T05:49:20;21.00;89.50
15578;DHT22;17667;45.598;5.214;2023-06-26T05:52:12;21.10;89.10
15578;DHT22;17667;45.598;5.214;2023-06-26T05:55:03;21.20;89.60
15578;DHT22;17667;45.598;5.214;2023-06-26T05:57:52;21.20;90.20
15578;DHT22;17667;45.598;5.214;2023-06-26T06:00:46;21.30;89.50
15578;DHT22;17667;45.598;5.214;2023-06-26T06:03:36;21.40;89.30
15578;DHT22;17667;45.598;5.214;2023-06-26T06:06:26;21.50;89.70
15578;DHT22;17667;45.598;5.214;2023-06-26T06:09:16;21.50;88.40
15578;DHT22;17667;45.598;5.214;2023-06-26T06:12:07;21.60;88.00
15578;DHT22;17667;45.598;5.214;2023-06-26T06:14:57;21.70;88.00
15578;DHT22;17667;45.598;5.214;2023-06-26T06:17:49;21.70;88.00
15578;DHT22;17667;45.598;5.214;2023-06-26T06:20:39;21.80;88.60
15578;DHT22;17667;45.598;5.214;2023-06-26T06:23:29;21.90;87.70
15578;DHT22;17667;45.598;5.214;2023-06-26T06:26:19;22.00;87.90
15578;DHT22;17667;45.598;5.214;2023-06-26T06:29:08;22.10;88.80
15578;DHT22;17667;45.598;5.214;2023-06-26T06:31:58;22.10;87.20
15578;DHT22;17667;45.598;5.214;2023-06-26T06:34:51;22.20;86.70
15578;DHT22;17667;45.598;5.214;2023-06-26T06:37:41;22.40;86.10
15578;DHT22;17667;45.598;5.214;2023-06-26T06:40:31;22.50;85.40
15578;DHT22;17667;45.598;5.214;2023-06-26T06:43:21;22.60;85.60
15578;DHT22;17667;45.598;5.214;2023-06-26T06:46:10;22.70;85.20
15578;DHT22;17667;45.598;5.214;2023-06-26T06:49:00;22.90;84.40
15578;DHT22;17667;45.598;5.214;2023-06-26T06:51:53;23.00;83.50
15578;DHT22;17667;45.598;5.214;2023-06-26T06:54:53;23.10;83.30
15578;DHT22;17667;45.598;5.214;2023-06-26T06:57:45;23.20;81.80
15578;DHT22;17667;45.598;5.214;2023-06-26T07:00:35;23.30;82.00
15578;DHT22;17667;45.598;5.214;2023-06-26T07:03:25;23.40;82.60
15578;DHT22;17667;45.598;5.214;2023-06-26T07:06:15;23.60;81.40
15578;DHT22;17667;45.598;5.214;2023-06-26T07:09:07;23.60;80.90
15578;DHT22;17667;45.598;5.214;2023-06-26T07:11:57;23.70;79.90
15578;DHT22;17667;45.598;5.214;2023-06-26T07:14:50;23.90;79.20
15578;DHT22;17667;45.598;5.214;2023-06-26T07:17:40;24.10;79.30
15578;DHT22;17667;45.598;5.214;2023-06-26T07:20:31;24.20;78.60
15578;DHT22;17667;45.598;5.214;2023-06-26T07:23:21;24.30;77.70
15578;DHT22;17667;45.598;5.214;2023-06-26T07:26:14;24.40;77.20
15578;DHT22;17667;45.598;5.214;2023-06-26T07:29:07;24.50;77.20
15578;DHT22;17667;45.598;5.214;2023-06-26T07:31:57;24.70;76.50
15578;DHT22;17667;45.598;5.214;2023-06-26T07:34:47;24.80;76.10
15578;DHT22;17667;45.598;5.214;2023-06-26T07:37:37;25.10;75.30
15578;DHT22;17667;45.598;5.214;2023-06-26T07:40:27;25.10;74.70
15578;DHT22;17667;45.598;5.214;2023-06-26T07:43:20;25.30;74.60
15578;DHT22;17667;45.598;5.214;2023-06-26T07:46:10;25.50;74.80
15578;DHT22;17667;45.598;5.214;2023-06-26T07:49:00;25.80;72.30
15578;DHT22;17667;45.598;5.214;2023-06-26T07:51:50;25.90;72.50
15578;DHT22;17667;45.598;5.214;2023-06-26T07:54:40;26.10;72.30
15578;DHT22;17667;45.598;5.214;2023-06-26T07:57:30;26.40;73.10
15578;DHT22;17667;45.598;5.214;2023-06-26T08:00:24;26.70;72.20
15578;DHT22;17667;45.598;5.214;2023-06-26T08:03:13;27.00;72.30
15578;DHT22;17667;45.598;5.214;2023-06-26T08:06:07;27.00;69.30
15578;DHT22;17667;45.598;5.214;2023-06-26T08:08:58;27.10;68.10
15578;DHT22;17667;45.598;5.214;2023-06-26T08:11:50;27.30;68.40
15578;DHT22;17667;45.598;5.214;2023-06-26T08:14:40;27.70;68.30
15578;DHT22;17667;45.598;5.214;2023-06-26T08:17:32;27.90;67.70
15578;DHT22;17667;45.598;5.214;2023-06-26T08:20:22;28.10;67.00
15578;DHT22;17667;45.598;5.214;2023-06-26T08:23:12;28.30;66.70
15578;DHT22;17667;45.598;5.214;2023-06-26T08:26:02;28.50;67.00
15578;DHT22;17667;45.598;5.214;2023-06-26T08:28:52;28.80;65.90
15578;DHT22;17667;45.598;5.214;2023-06-26T08:31:42;28.90;66.30
15578;DHT22;17667;45.598;5.214;2023-06-26T08:34:35;29.10;65.00
15578;DHT22;17667;45.598;5.214;2023-06-26T08:37:25;29.40;64.80
15578;DHT22;17667;45.598;5.214;2023-06-26T08:40:17;29.60;62.50
15578;DHT22;17667;45.598;5.214;2023-06-26T08:43:07;30.00;63.50
15578;DHT22;17667;45.598;5.214;2023-06-26T08:45:58;30.30;63.00
15578;DHT22;17667;45.598;5.214;2023-06-26T08:48:49;30.60;62.80
15578;DHT22;17667;45.598;5.214;2023-06-26T08:51:49;30.90;62.40
15578;DHT22;17667;45.598;5.214;2023-06-26T08:54:45;31.30;60.50
15578;DHT22;17667;45.598;5.214;2023-06-26T08:57:36;31.60;60.40
15578;DHT22;17667;45.598;5.214;2023-06-26T09:00:27;31.80;58.50
15578;DHT22;17667;45.598;5.214;2023-06-26T09:03:17;32.00;58.50
15578;DHT22;17667;45.598;5.214;2023-06-26T09:06:07;32.40;58.50
15578;DHT22;17667;45.598;5.214;2023-06-26T09:08:59;33.20;59.00
15578;DHT22;17667;45.598;5.214;2023-06-26T09:11:50;34.70;53.60
15578;DHT22;17667;45.598;5.214;2023-06-26T09:14:41;35.60;48.40
15578;DHT22;17667;45.598;5.214;2023-06-26T09:17:33;37.10;52.00
15578;DHT22;17667;45.598;5.214;2023-06-26T09:20:23;37.90;47.60
15578;DHT22;17667;45.598;5.214;2023-06-26T09:23:17;38.90;46.40
15578;DHT22;17667;45.598;5.214;2023-06-26T09:26:11;39.20;43.60
15578;DHT22;17667;45.598;5.214;2023-06-26T09:29:01;40.20;45.20
15578;DHT22;17667;45.598;5.214;2023-06-26T09:31:51;41.00;42.80
15578;DHT22;17667;45.598;5.214;2023-06-26T09:34:44;41.20;41.50
15578;DHT22;17667;45.598;5.214;2023-06-26T09:37:39;42.00;42.10
15578;DHT22;17667;45.598;5.214;2023-06-26T09:40:29;42.40;39.30
15578;DHT22;17667;45.598;5.214;2023-06-26T09:43:23;42.50;39.40
15578;DHT22;17667;45.598;5.214;2023-06-26T09:46:15;42.50;38.90
15578;DHT22;17667;45.598;5.214;2023-06-26T09:49:10;43.00;39.70
15578;DHT22;17667;45.598;5.214;2023-06-26T09:52:01;43.10;40.10
15578;DHT22;17667;45.598;5.214;2023-06-26T09:55:07;43.50;38.50
15578;DHT22;17667;45.598;5.214;2023-06-26T09:57:58;43.80;38.40
15578;DHT22;17667;45.598;5.214;2023-06-26T10:00:52;43.90;37.60
15578;DHT22;17667;45.598;5.214;2023-06-26T10:03:42;44.30;36.30
15578;DHT22;17667;45.598;5.214;2023-06-26T10:06:35;44.70;37.80
15578;DHT22;17667;45.598;5.214;2023-06-26T10:09:25;45.40;36.30
15578;DHT22;17667;45.598;5.214;2023-06-26T10:12:19;45.80;33.50
15578;DHT22;17667;45.598;5.214;2023-06-26T10:15:10;45.70;36.30
15578;DHT22;17667;45.598;5.214;2023-06-26T10:18:06;45.60;35.00
15578;DHT22;17667;45.598;5.214;2023-06-26T10:20:57;45.40;34.30
15578;DHT22;17667;45.598;5.214;2023-06-26T10:23:51;45.80;36.40
15578;DHT22;17667;45.598;5.214;2023-06-26T10:26:44;46.30;34.80
15578;DHT22;17667;45.598;5.214;2023-06-26T10:29:34;46.50;33.50
15578;DHT22;17667;45.598;5.214;2023-06-26T10:32:26;46.90;33.60
15578;DHT22;17667;45.598;5.214;2023-06-26T10:35:19;47.30;33.40
15578;DHT22;17667;45.598;5.214;2023-06-26T10:38:09;47.40;33.10
15578;DHT22;17667;45.598;5.214;2023-06-26T10:41:10;47.60;33.40
15578;DHT22;17667;45.598;5.214;2023-06-26T10:44:09;47.90;34.10
15578;DHT22;17667;45.598;5.214;2023-06-26T10:46:59;47.80;33.40
15578;DHT22;17667;45.598;5.214;2023-06-26T10:49:49;47.40;31.40
15578;DHT22;17667;45.598;5.214;2023-06-26T10:53:08;47.60;32.40
15578;DHT22;17667;45.598;5.214;2023-06-26T10:55:59;48.20;31.60
15578;DHT22;17667;45.598;5.214;2023-06-26T10:58:51;48.20;33.30
15578;DHT22;17667;45.598;5.214;2023-06-26T11:01:44;48.20;31.20
15578;DHT22;17667;45.598;5.214;2023-06-26T11:04:38;47.80;33.10
15578;DHT22;17667;45.598;5.214;2023-06-26T11:07:28;48.00;32.30
15578;DHT22;17667;45.598;5.214;2023-06-26T11:10:21;48.00;32.60
15578;DHT22;17667;45.598;5.214;2023-06-26T11:13:11;47.20;33.20
15578;DHT22;17667;45.598;5.214;2023-06-26T11:16:02;47.20;33.20
15578;DHT22;17667;45.598;5.214;2023-06-26T11:18:58;47.20;32.50
15578;DHT22;17667;45.598;5.214;2023-06-26T11:21:48;47.20;32.00
15578;DHT22;17667;45.598;5.214;2023-06-26T11:24:38;46.90;34.10
15578;DHT22;17667;45.598;5.214;2023-06-26T11:27:38;47.20;33.80
15578;DHT22;17667;45.598;5.214;2023-06-26T11:30:28;47.10;32.40
15578;DHT22;17667;45.598;5.214;2023-06-26T11:33:18;46.90;33.40
15578;DHT22;17667;45.598;5.214;2023-06-26T11:36:10;47.10;34.10
15578;DHT22;17667;45.598;5.214;2023-06-26T11:39:01;47.60;33.30
15578;DHT22;17667;45.598;5.214;2023-06-26T11:41:52;47.80;32.00
15578;DHT22;17667;45.598;5.214;2023-06-26T11:44:45;46.90;32.90
15578;DHT22;17667;45.598;5.214;2023-06-26T11:47:34;46.30;32.60
15578;DHT22;17667;45.598;5.214;2023-06-26T11:50:26;46.10;32.70
15578;DHT22;17667;45.598;5.214;2023-06-26T11:53:16;46.40;33.50
15578;DHT22;17667;45.598;5.214;2023-06-26T11:56:08;46.20;33.90
15578;DHT22;17667;45.598;5.214;2023-06-26T11:59:00;46.10;32.90
15578;DHT22;17667;45.598;5.214;2023-06-26T12:01:52;46.70;34.30
15578;DHT22;17667;45.598;5.214;2023-06-26T12:04:44;47.10;32.80
15578;DHT22;17667;45.598;5.214;2023-06-26T12:07:34;47.20;33.20
15578;DHT22;17667;45.598;5.214;2023-06-26T12:10:24;46.40;31.80
15578;DHT22;17667;45.598;5.214;2023-06-26T12:13:14;46.20;33.70
15578;DHT22;17667;45.598;5.214;2023-06-26T12:16:04;45.60;32.90
15578;DHT22;17667;45.598;5.214;2023-06-26T12:19:01;45.80;33.50
15578;DHT22;17667;45.598;5.214;2023-06-26T12:21:50;45.00;33.00
15578;DHT22;17667;45.598;5.214;2023-06-26T12:24:43;44.50;33.90
15578;DHT22;17667;45.598;5.214;2023-06-26T12:27:33;45.40;34.40
15578;DHT22;17667;45.598;5.214;2023-06-26T12:30:24;45.60;33.30
15578;DHT22;17667;45.598;5.214;2023-06-26T12:33:15;45.90;33.10
15578;DHT22;17667;45.598;5.214;2023-06-26T12:36:10;45.60;32.40
15578;DHT22;17667;45.598;5.214;2023-06-26T12:39:01;45.70;33.40
15578;DHT22;17667;45.598;5.214;2023-06-26T12:41:53;45.40;33.00
15578;DHT22;17667;45.598;5.214;2023-06-26T12:44:43;45.70;33.00
15578;DHT22;17667;45.598;5.214;2023-06-26T12:47:33;45.20;33.20
15578;DHT22;17667;45.598;5.214;2023-06-26T12:50:25;45.30;33.50
15578;DHT22;17667;45.598;5.214;2023-06-26T12:53:18;45.60;33.30
15578;DHT22;17667;45.598;5.214;2023-06-26T12:56:08;45.20;33.50
15578;DHT22;17667;45.598;5.214;2023-06-26T12:58:58;45.90;33.50
15578;DHT22;17667;45.598;5.214;2023-06-26T13:01:48;45.20;32.80
15578;DHT22;17667;45.598;5.214;2023-06-26T13:04:38;45.60;33.90
15578;DHT22;17667;45.598;5.214;2023-06-26T13:07:31;45.90;34.10
15578;DHT22;17667;45.598;5.214;2023-06-26T13:10:23;45.00;32.80
15578;DHT22;17667;45.598;5.214;2023-06-26T13:13:15;45.00;33.60
15578;DHT22;17667;45.598;5.214;2023-06-26T13:16:05;45.20;33.80
15578;DHT22;17667;45.598;5.214;2023-06-26T13:18:57;45.10;33.50
15578;DHT22;17667;45.598;5.214;2023-06-26T13:21:47;45.20;32.60
15578;DHT22;17667;45.598;5.214;2023-06-26T13:24:37;44.70;34.50
15578;DHT22;17667;45.598;5.214;2023-06-26T13:27:30;44.90;34.70
15578;DHT22;17667;45.598;5.214;2023-06-26T13:30:21;44.40;34.20
15578;DHT22;17667;45.598;5.214;2023-06-26T13:33:11;44.10;34.60
15578;DHT22;17667;45.598;5.214;2023-06-26T13:36:01;44.30;34.70
15578;DHT22;17667;45.598;5.214;2023-06-26T13:38:52;44.00;35.00
15578;DHT22;17667;45.598;5.214;2023-06-26T13:41:43;43.50;35.20
15578;DHT22;17667;45.598;5.214;2023-06-26T13:44:35;43.30;35.10
15578;DHT22;17667;45.598;5.214;2023-06-26T13:47:30;43.10;35.30
15578;DHT22;17667;45.598;5.214;2023-06-26T13:50:21;43.40;35.40
15578;DHT22;17667;45.598;5.214;2023-06-26T13:53:11;43.70;34.90
15578;DHT22;17667;45.598;5.214;2023-06-26T13:56:01;43.50;34.50
15578;DHT22;17667;45.598;5.214;2023-06-26T13:58:51;42.90;36.00
15578;DHT22;17667;45.598;5.214;2023-06-26T14:01:43;43.00;35.70
15578;DHT22;17667;45.598;5.214;2023-06-26T14:04:33;42.20;36.40
15578;DHT22;17667;45.598;5.214;2023-06-26T14:07:24;42.40;37.10
15578;DHT22;17667;45.598;5.214;2023-06-26T14:10:14;42.60;36.00
15578;DHT22;17667;45.598;5.214;2023-06-26T14:13:04;41.90;36.70
15578;DHT22;17667;45.598;5.214;2023-06-26T14:15:55;41.60;37.00
15578;DHT22;17667;45.598;5.214;2023-06-26T14:18:47;41.60;37.20
15578;DHT22;17667;45.598;5.214;2023-06-26T14:21:37;41.80;37.60
15578;DHT22;17667;45.598;5.214;2023-06-26T14:24:27;42.10;36.30
15578;DHT22;17667;45.598;5.214;2023-06-26T14:27:17;41.60;36.30
15578;DHT22;17667;45.598;5.214;2023-06-26T14:30:08;41.10;36.70
15578;DHT22;17667;45.598;5.214;2023-06-26T14:32:58;40.70;37.90
15578;DHT22;17667;45.598;5.214;2023-06-26T14:35:51;40.70;37.70
15578;DHT22;17667;45.598;5.214;2023-06-26T14:38:43;40.80;37.60
15578;DHT22;17667;45.598;5.214;2023-06-26T14:41:33;40.60;38.10
15578;DHT22;17667;45.598;5.214;2023-06-26T14:44:23;40.80;38.00
15578;DHT22;17667;45.598;5.214;2023-06-26T14:47:13;40.50;37.80
15578;DHT22;17667;45.598;5.214;2023-06-26T14:50:04;40.00;38.30
15578;DHT22;17667;45.598;5.214;2023-06-26T14:52:57;39.50;38.40
15578;DHT22;17667;45.598;5.214;2023-06-26T14:55:46;39.70;39.20
15578;DHT22;17667;45.598;5.214;2023-06-26T14:58:36;40.00;38.60
15578;DHT22;17667;45.598;5.214;2023-06-26T15:01:26;39.80;38.60
15578;DHT22;17667;45.598;5.214;2023-06-26T15:04:17;39.70;38.50
15578;DHT22;17667;45.598;5.214;2023-06-26T15:07:07;39.80;38.80
15578;DHT22;17667;45.598;5.214;2023-06-26T15:09:59;39.40;39.10
15578;DHT22;17667;45.598;5.214;2023-06-26T15:12:49;39.20;39.30
15578;DHT22;17667;45.598;5.214;2023-06-26T15:15:39;39.40;39.10
15578;DHT22;17667;45.598;5.214;2023-06-26T15:18:29;39.30;39.30
15578;DHT22;17667;45.598;5.214;2023-06-26T15:21:19;39.40;38.80
15578;DHT22;17667;45.598;5.214;2023-06-26T15:24:09;38.80;39.80
15578;DHT22;17667;45.598;5.214;2023-06-26T15:27:01;38.70;40.20
15578;DHT22;17667;45.598;5.214;2023-06-26T15:29:51;38.40;40.20
15578;DHT22;17667;45.598;5.214;2023-06-26T15:32:41;38.00;40.80
15578;DHT22;17667;45.598;5.214;2023-06-26T15:35:31;37.50;41.50
15578;DHT22;17667;45.598;5.214;2023-06-26T15:38:21;37.20;41.60
15578;DHT22;17667;45.598;5.214;2023-06-26T15:41:11;36.60;41.80
15578;DHT22;17667;45.598;5.214;2023-06-26T15:44:04;36.20;42.80
15578;DHT22;17667;45.598;5.214;2023-06-26T15:46:54;35.60;43.70
15578;DHT22;17667;45.598;5.214;2023-06-26T15:49:45;35.00;44.20
15578;DHT22;17667;45.598;5.214;2023-06-26T15:52:35;34.60;44.70
15578;DHT22;17667;45.598;5.214;2023-06-26T15:55:25;34.30;45.50
15578;DHT22;17667;45.598;5.214;2023-06-26T15:58:15;34.10;45.60
15578;DHT22;17667;45.598;5.214;2023-06-26T16:01:08;34.00;46.70
15578;DHT22;17667;45.598;5.214;2023-06-26T16:03:58;33.90;46.10
15578;DHT22;17667;45.598;5.214;2023-06-26T16:06:47;33.70;46.60
15578;DHT22;17667;45.598;5.214;2023-06-26T16:09:37;33.60;46.90
15578;DHT22;17667;45.598;5.214;2023-06-26T16:12:27;33.50;47.20
15578;DHT22;17667;45.598;5.214;2023-06-26T16:15:17;33.50;47.50
15578;DHT22;17667;45.598;5.214;2023-06-26T16:18:09;33.40;47.50
15578;DHT22;17667;45.598;5.214;2023-06-26T16:20:59;33.60;47.30
15578;DHT22;17667;45.598;5.214;2023-06-26T16:23:49;33.50;46.70
15578;DHT22;17667;45.598;5.214;2023-06-26T16:26:39;33.40;47.00
15578;DHT22;17667;45.598;5.214;2023-06-26T16:29:29;33.30;47.40
15578;DHT22;17667;45.598;5.214;2023-06-26T16:32:20;33.20;47.30
15578;DHT22;17667;45.598;5.214;2023-06-26T16:35:12;33.00;47.80
15578;DHT22;17667;45.598;5.214;2023-06-26T16:38:02;32.80;47.70
15578;DHT22;17667;45.598;5.214;2023-06-26T16:40:53;32.60;47.60
15578;DHT22;17667;45.598;5.214;2023-06-26T16:43:43;32.60;48.30
15578;DHT22;17667;45.598;5.214;2023-06-26T16:46:32;32.40;48.50
15578;DHT22;17667;45.598;5.214;2023-06-26T16:49:22;32.10;49.10
15578;DHT22;17667;45.598;5.214;2023-06-26T16:52:15;32.10;48.60
15578;DHT22;17667;45.598;5.214;2023-06-26T16:55:07;32.10;49.50
15578;DHT22;17667;45.598;5.214;2023-06-26T16:57:57;32.00;49.40
15578;DHT22;17667;45.598;5.214;2023-06-26T17:00:47;31.90;48.90
15578;DHT22;17667;45.598;5.214;2023-06-26T17:03:37;31.70;49.90
15578;DHT22;17667;45.598;5.214;2023-06-26T17:06:26;31.60;50.40
15578;DHT22;17667;45.598;5.214;2023-06-26T17:09:19;31.50;50.40
15578;DHT22;17667;45.598;5.214;2023-06-26T17:12:09;31.40;49.90
15578;DHT22;17667;45.598;5.214;2023-06-26T17:14:58;31.50;50.80
15578;DHT22;17667;45.598;5.214;2023-06-26T17:17:50;31.30;50.80
15578;DHT22;17667;45.598;5.214;2023-06-26T17:20:40;31.20;50.90
15578;DHT22;17667;45.598;5.214;2023-06-26T17:23:30;31.10;50.90
15578;DHT22;17667;45.598;5.214;2023-06-26T17:26:22;31.00;51.10
15578;DHT22;17667;45.598;5.214;2023-06-26T17:29:13;30.90;51.70
15578;DHT22;17667;45.598;5.214;2023-06-26T17:32:03;30.70;51.40
15578;DHT22;17667;45.598;5.214;2023-06-26T17:34:53;30.70;51.80
15578;DHT22;17667;45.598;5.214;2023-06-26T17:37:43;30.60;51.80
15578;DHT22;17667;45.598;5.214;2023-06-26T17:40:33;30.40;52.20
15578;DHT22;17667;45.598;5.214;2023-06-26T17:43:27;30.30;52.40
15578;DHT22;17667;45.598;5.214;2023-06-26T17:46:17;30.20;52.30
15578;DHT22;17667;45.598;5.214;2023-06-26T17:49:07;30.00;52.50
15578;DHT22;17667;45.598;5.214;2023-06-26T17:51:58;29.90;52.40
15578;DHT22;17667;45.598;5.214;2023-06-26T17:54:48;29.80;53.00
15578;DHT22;17667;45.598;5.214;2023-06-26T17:57:38;29.80;53.70
15578;DHT22;17667;45.598;5.214;2023-06-26T18:00:31;29.70;53.60